createdAt,value
2014-07-14T00:00:01.297Z,100206
2014-07-14T00:00:18.891Z,100209
2014-07-14T00:00:37.110Z,100203
2014-07-14T00:00:54.844Z,100209
2014-07-14T00:01:12.455Z,100209
2014-07-14T00:01:30.049Z,100206
2014-07-14T00:01:47.659Z,100209
2014-07-14T00:02:05.379Z,100200
2014-07-14T00:02:23.754Z,100203
2014-07-14T00:02:41.348Z,100197
2014-07-14T00:02:59.567Z,100206
2014-07-14T00:03:17.178Z,100206
2014-07-14T00:03:34.772Z,100200
2014-07-14T00:03:52.381Z,100194
2014-07-14T00:04:09.977Z,100203
2014-07-14T00:04:27.586Z,100203
2014-07-14T00:04:45.805Z,100209
2014-07-14T00:05:04.040Z,100203
2014-07-14T00:05:22.276Z,100206
2014-07-14T00:05:39.870Z,100212
2014-07-14T00:05:56.963Z,100203
2014-07-14T00:06:14.606Z,100209
2014-07-14T00:06:32.825Z,100209
2014-07-14T00:06:50.559Z,100203
2014-07-14T00:07:08.169Z,100203
2014-07-14T00:07:26.405Z,100206
2014-07-14T00:07:43.999Z,100200
2014-07-14T00:08:02.233Z,100203
2014-07-14T00:08:19.344Z,100200
2014-07-14T00:08:37.563Z,100200
2014-07-14T00:08:55.798Z,100200
2014-07-14T00:09:13.391Z,100200
2014-07-14T00:09:30.987Z,100197
2014-07-14T00:09:49.346Z,100200
2014-07-14T00:10:07.581Z,100194
2014-07-14T00:10:25.817Z,100194
2014-07-14T00:10:44.036Z,100203
2014-07-14T00:11:02.270Z,100194
2014-07-14T00:11:20.505Z,100200
2014-07-14T00:11:38.100Z,100209
2014-07-14T00:11:55.710Z,100206
2014-07-14T00:12:12.054Z,100212
2014-07-14T00:12:30.274Z,100212
2014-07-14T00:12:47.884Z,100203
2014-07-14T00:13:06.118Z,100212
2014-07-14T00:13:24.337Z,100206
2014-07-14T00:13:41.948Z,100212
2014-07-14T00:13:59.542Z,100212
2014-07-14T00:14:17.136Z,100215
2014-07-14T00:14:34.122Z,100200
2014-07-14T00:14:51.716Z,100215
2014-07-14T00:15:08.700Z,100217
2014-07-14T00:15:26.294Z,100217
2014-07-14T00:15:43.890Z,100215
2014-07-14T00:16:02.124Z,100215
2014-07-14T00:16:20.358Z,100212
2014-07-14T00:16:37.952Z,100212
2014-07-14T00:16:55.564Z,100215
2014-07-14T00:17:11.907Z,100223
2014-07-14T00:17:30.267Z,100217
2014-07-14T00:17:48.503Z,100220
2014-07-14T00:18:05.472Z,100226
2014-07-14T00:18:23.706Z,100226
2014-07-14T00:18:41.300Z,100220
2014-07-14T00:18:58.287Z,100217
2014-07-14T00:19:16.522Z,100217
2014-07-14T00:19:34.740Z,100212
2014-07-14T00:19:52.350Z,100223
2014-07-14T00:20:10.070Z,100223
2014-07-14T00:20:27.679Z,100206
2014-07-14T00:20:44.648Z,100223
2014-07-14T00:21:02.884Z,100214
2014-07-14T00:21:20.478Z,100214
2014-07-14T00:21:38.697Z,100212
2014-07-14T00:21:56.931Z,100209
2014-07-14T00:22:13.917Z,100212
2014-07-14T00:22:31.511Z,100212
2014-07-14T00:22:49.745Z,100223
2014-07-14T00:23:07.341Z,100217
2014-07-14T00:23:24.935Z,100206
2014-07-14T00:23:42.685Z,100206
2014-07-14T00:24:00.279Z,100214
2014-07-14T00:24:17.891Z,100209
2014-07-14T00:24:34.860Z,100217
2014-07-14T00:24:52.469Z,100217
2014-07-14T00:25:10.065Z,100209
2014-07-14T00:25:27.674Z,100217
2014-07-14T00:25:45.393Z,100212
2014-07-14T00:26:02.362Z,100223
2014-07-14T00:26:19.972Z,100214
2014-07-14T00:26:38.207Z,100217
2014-07-14T00:26:55.800Z,100214
2014-07-14T00:27:13.412Z,100223
2014-07-14T00:27:31.005Z,100212
2014-07-14T00:27:49.365Z,100206
2014-07-14T00:28:07.599Z,100209
2014-07-14T00:28:25.196Z,100223
2014-07-14T00:28:43.430Z,100212
2014-07-14T00:29:01.024Z,100214
2014-07-14T00:29:17.995Z,100212
2014-07-14T00:29:35.604Z,100214
2014-07-14T00:29:53.229Z,100214
2014-07-14T00:30:10.823Z,100206
2014-07-14T00:30:29.043Z,100217
2014-07-14T00:30:46.777Z,100212
2014-07-14T00:31:04.386Z,100217
2014-07-14T00:31:22.607Z,100214
2014-07-14T00:31:40.201Z,100212
2014-07-14T00:31:57.810Z,100220
2014-07-14T00:32:16.029Z,100217
2014-07-14T00:32:33.640Z,100209
2014-07-14T00:32:51.234Z,100197
2014-07-14T00:33:09.469Z,100212
2014-07-14T00:33:26.439Z,100209
2014-07-14T00:33:44.049Z,100214
2014-07-14T00:34:01.642Z,100206
2014-07-14T00:34:19.877Z,100209
2014-07-14T00:34:37.473Z,100214
2014-07-14T00:34:55.066Z,100214
2014-07-14T00:35:13.301Z,100220
2014-07-14T00:35:30.896Z,100217
2014-07-14T00:35:47.865Z,100212
2014-07-14T00:36:04.975Z,100214
2014-07-14T00:36:22.568Z,100220
2014-07-14T00:36:40.805Z,100214
2014-07-14T00:36:59.023Z,100223
2014-07-14T00:37:16.008Z,100217
2014-07-14T00:37:33.602Z,100217
2014-07-14T00:37:51.213Z,100217
2014-07-14T00:38:08.807Z,100217
2014-07-14T00:38:27.041Z,100220
2014-07-14T00:38:44.638Z,100220
2014-07-14T00:39:02.232Z,100217
2014-07-14T00:39:20.497Z,100217
2014-07-14T00:39:38.075Z,100220
2014-07-14T00:39:56.312Z,100214
2014-07-14T00:40:13.905Z,100220
2014-07-14T00:40:32.124Z,100217
2014-07-14T00:40:48.469Z,100223
2014-07-14T00:41:06.703Z,100214
2014-07-14T00:41:23.672Z,100220
2014-07-14T00:41:41.281Z,100226
2014-07-14T00:41:58.252Z,100217
2014-07-14T00:42:15.846Z,100223
2014-07-14T00:42:34.080Z,100223
2014-07-14T00:42:51.676Z,100229
2014-07-14T00:43:09.270Z,100226
2014-07-14T00:43:27.504Z,100220
2014-07-14T00:43:45.098Z,100223
2014-07-14T00:44:02.709Z,100232
2014-07-14T00:44:20.928Z,100217
2014-07-14T00:44:39.162Z,100226
2014-07-14T00:44:57.525Z,100226
2014-07-14T00:45:15.884Z,100229
2014-07-14T00:45:33.478Z,100217
2014-07-14T00:45:51.087Z,100229
2014-07-14T00:46:08.698Z,100223
2014-07-14T00:46:27.104Z,100229
2014-07-14T00:46:44.698Z,100229
2014-07-14T00:47:02.293Z,100235
2014-07-14T00:47:19.903Z,100223
2014-07-14T00:47:38.122Z,100232
2014-07-14T00:47:56.387Z,100232
2014-07-14T00:48:13.983Z,100226
2014-07-14T00:48:32.217Z,100232
2014-07-14T00:48:50.436Z,100217
2014-07-14T00:49:08.672Z,100223
2014-07-14T00:49:26.266Z,100223
2014-07-14T00:49:44.501Z,100217
2014-07-14T00:50:02.719Z,100223
2014-07-14T00:50:20.331Z,100232
2014-07-14T00:50:37.299Z,100223
2014-07-14T00:50:54.268Z,100217
2014-07-14T00:51:11.240Z,100217
2014-07-14T00:51:28.849Z,100217
2014-07-14T00:51:47.068Z,100217
2014-07-14T00:52:04.677Z,100217
2014-07-14T00:52:22.272Z,100223
2014-07-14T00:52:39.241Z,100212
2014-07-14T00:52:57.600Z,100220
2014-07-14T00:53:14.571Z,100214
2014-07-14T00:53:32.180Z,100223
2014-07-14T00:53:50.571Z,100214
2014-07-14T00:54:08.134Z,100226
2014-07-14T00:54:26.371Z,100223
2014-07-14T00:54:43.965Z,100220
2014-07-14T00:55:02.199Z,100217
2014-07-14T00:55:20.420Z,100220
2014-07-14T00:55:38.654Z,100220
2014-07-14T00:55:54.998Z,100220
2014-07-14T00:56:12.607Z,100223
2014-07-14T00:56:30.343Z,100212
2014-07-14T00:56:47.936Z,100214
2014-07-14T00:57:06.155Z,100209
2014-07-14T00:57:23.265Z,100220
2014-07-14T00:57:40.860Z,100220
2014-07-14T00:57:58.610Z,100217
2014-07-14T00:58:16.845Z,100220
2014-07-14T00:58:33.816Z,100217
2014-07-14T00:58:52.035Z,100212
2014-07-14T00:59:09.645Z,100214
2014-07-14T00:59:27.238Z,100220
2014-07-14T00:59:44.850Z,100220
2014-07-14T01:00:02.443Z,100217
2014-07-14T01:00:20.662Z,100220
2014-07-14T01:00:37.649Z,100217
2014-07-14T01:00:55.242Z,100223
2014-07-14T01:01:12.836Z,100217
2014-07-14T01:01:29.820Z,100223
2014-07-14T01:01:47.416Z,100220
2014-07-14T01:02:05.010Z,100220
2014-07-14T01:02:23.244Z,100220
2014-07-14T01:02:40.838Z,100217
2014-07-14T01:02:58.449Z,100217
2014-07-14T01:03:16.043Z,100214
2014-07-14T01:03:33.028Z,100223
2014-07-14T01:03:51.247Z,100217
2014-07-14T01:04:08.982Z,100223
2014-07-14T01:04:27.216Z,100226
2014-07-14T01:04:44.825Z,100223
2014-07-14T01:05:03.046Z,100217
2014-07-14T01:05:21.281Z,100220
2014-07-14T01:05:39.515Z,100220
2014-07-14T01:05:57.111Z,100212
2014-07-14T01:06:14.704Z,100217
2014-07-14T01:06:32.361Z,100214
2014-07-14T01:06:49.954Z,100212
2014-07-14T01:07:06.942Z,100214
2014-07-14T01:07:25.192Z,100212
2014-07-14T01:07:43.411Z,100206
2014-07-14T01:08:01.022Z,100212
2014-07-14T01:08:19.256Z,100220
2014-07-14T01:08:37.475Z,100220
2014-07-14T01:08:55.084Z,100217
2014-07-14T01:09:13.304Z,100217
2014-07-14T01:09:30.898Z,100220
2014-07-14T01:09:48.523Z,100217
2014-07-14T01:10:06.120Z,100223
2014-07-14T01:10:23.713Z,100220
2014-07-14T01:10:41.323Z,100223
2014-07-14T01:10:58.292Z,100217
2014-07-14T01:11:16.528Z,100223
2014-07-14T01:11:33.497Z,100220
2014-07-14T01:11:51.731Z,100223
2014-07-14T01:12:09.950Z,100226
2014-07-14T01:12:28.185Z,100212
2014-07-14T01:12:46.420Z,100214
2014-07-14T01:13:04.638Z,100226
2014-07-14T01:13:20.984Z,100214
2014-07-14T01:13:38.593Z,100212
2014-07-14T01:13:56.953Z,100217
2014-07-14T01:14:15.187Z,100226
2014-07-14T01:14:33.409Z,100214
2014-07-14T01:14:51.643Z,100214
2014-07-14T01:15:09.878Z,100220
2014-07-14T01:15:26.848Z,100226
2014-07-14T01:15:45.067Z,100223
2014-07-14T01:16:02.677Z,100226
2014-07-14T01:16:20.895Z,100220
2014-07-14T01:16:38.507Z,100220
2014-07-14T01:16:56.725Z,100214
2014-07-14T01:17:14.335Z,100220
2014-07-14T01:17:31.930Z,100226
2014-07-14T01:17:50.164Z,100226
2014-07-14T01:18:08.383Z,100214
2014-07-14T01:18:26.617Z,100214
2014-07-14T01:18:44.229Z,100212
2014-07-14T01:19:02.448Z,100217
2014-07-14T01:19:20.683Z,100223
2014-07-14T01:19:38.277Z,100217
2014-07-14T01:19:55.887Z,100214
2014-07-14T01:20:14.105Z,100217
2014-07-14T01:20:31.715Z,100214
2014-07-14T01:20:49.312Z,100212
2014-07-14T01:21:07.546Z,100214
2014-07-14T01:21:25.140Z,100209
2014-07-14T01:21:43.376Z,100214
2014-07-14T01:22:00.345Z,100217
2014-07-14T01:22:18.564Z,100220
2014-07-14T01:22:36.173Z,100214
2014-07-14T01:22:54.534Z,100220
2014-07-14T01:23:11.503Z,100209
2014-07-14T01:23:29.862Z,100217
2014-07-14T01:23:48.099Z,100212
2014-07-14T01:24:06.333Z,100212
2014-07-14T01:24:24.552Z,100217
2014-07-14T01:24:41.536Z,100203
2014-07-14T01:24:59.132Z,100217
2014-07-14T01:25:17.366Z,100214
2014-07-14T01:25:35.585Z,100214
2014-07-14T01:25:53.822Z,100217
2014-07-14T01:26:11.415Z,100220
2014-07-14T01:26:29.025Z,100217
2014-07-14T01:26:47.243Z,100217
2014-07-14T01:27:04.213Z,100214
2014-07-14T01:27:21.807Z,100223
2014-07-14T01:27:40.041Z,100217
2014-07-14T01:27:56.388Z,100220
2014-07-14T01:28:13.357Z,100209
2014-07-14T01:28:31.591Z,100209
2014-07-14T01:28:49.810Z,100217
2014-07-14T01:29:07.406Z,100212
2014-07-14T01:29:25.015Z,100214
2014-07-14T01:29:42.624Z,100220
2014-07-14T01:30:00.845Z,100217
2014-07-14T01:30:18.455Z,100223
2014-07-14T01:30:35.423Z,100220
2014-07-14T01:30:53.642Z,100226
2014-07-14T01:31:11.253Z,100226
2014-07-14T01:31:29.488Z,100226
2014-07-14T01:31:46.457Z,100232
2014-07-14T01:32:03.427Z,100226
2014-07-14T01:32:21.037Z,100226
2014-07-14T01:32:38.005Z,100220
2014-07-14T01:32:56.240Z,100229
2014-07-14T01:33:14.461Z,100226
2014-07-14T01:33:32.695Z,100223
2014-07-14T01:33:50.929Z,100229
2014-07-14T01:34:08.524Z,100226
2014-07-14T01:34:26.118Z,100220
2014-07-14T01:34:44.352Z,100232
2014-07-14T01:35:02.587Z,100229
2014-07-14T01:35:19.557Z,100232
2014-07-14T01:35:37.792Z,100217
2014-07-14T01:35:56.010Z,100226
2014-07-14T01:36:14.248Z,100232
2014-07-14T01:36:32.467Z,100235
2014-07-14T01:36:50.701Z,100229
2014-07-14T01:37:08.935Z,100229
2014-07-14T01:37:25.906Z,100220
2014-07-14T01:37:44.140Z,100220
2014-07-14T01:38:01.734Z,100229
2014-07-14T01:38:19.971Z,100223
2014-07-14T01:38:38.205Z,100229
2014-07-14T01:38:56.424Z,100232
2014-07-14T01:39:14.658Z,100229
2014-07-14T01:39:32.253Z,100235
2014-07-14T01:39:49.862Z,100235
2014-07-14T01:40:07.456Z,100226
2014-07-14T01:40:25.693Z,100232
2014-07-14T01:40:43.928Z,100232
2014-07-14T01:41:00.896Z,100220
2014-07-14T01:41:18.490Z,100223
2014-07-14T01:41:36.102Z,100229
2014-07-14T01:41:54.336Z,100229
2014-07-14T01:42:12.555Z,100220
2014-07-14T01:42:30.166Z,100237
2014-07-14T01:42:48.385Z,100223
2014-07-14T01:43:05.994Z,100226
2014-07-14T01:43:24.213Z,100223
2014-07-14T01:43:41.809Z,100229
2014-07-14T01:44:00.043Z,100226
2014-07-14T01:44:18.277Z,100229
2014-07-14T01:44:36.498Z,100235
2014-07-14T01:44:54.733Z,100226
2014-07-14T01:45:12.967Z,100217
2014-07-14T01:45:31.186Z,100220
2014-07-14T01:45:48.172Z,100223
2014-07-14T01:46:05.766Z,100226
2014-07-14T01:46:24.000Z,100229
2014-07-14T01:46:42.221Z,100214
2014-07-14T01:46:59.190Z,100220
2014-07-14T01:47:16.799Z,100220
2014-07-14T01:47:35.018Z,100220
2014-07-14T01:47:52.629Z,100220
2014-07-14T01:48:10.223Z,100214
2014-07-14T01:48:27.817Z,100220
2014-07-14T01:48:45.428Z,100226
2014-07-14T01:49:03.647Z,100235
2014-07-14T01:49:21.256Z,100226
2014-07-14T01:49:39.475Z,100232
2014-07-14T01:49:57.086Z,100229
2014-07-14T01:50:14.680Z,100223
2014-07-14T01:50:31.164Z,100220
2014-07-14T01:50:49.526Z,100232
2014-07-14T01:51:07.760Z,100226
2014-07-14T01:51:25.979Z,100229
2014-07-14T01:51:42.948Z,100226
2014-07-14T01:52:00.559Z,100226
2014-07-14T01:52:18.778Z,100223
2014-07-14T01:52:36.528Z,100226
2014-07-14T01:52:54.124Z,100226
2014-07-14T01:53:11.717Z,100229
2014-07-14T01:53:29.327Z,100223
2014-07-14T01:53:46.295Z,100223
2014-07-14T01:54:03.891Z,100226
2014-07-14T01:54:22.126Z,100232
2014-07-14T01:54:40.360Z,100223
2014-07-14T01:54:58.579Z,100232
2014-07-14T01:55:16.815Z,100229
2014-07-14T01:55:34.549Z,100226
2014-07-14T01:55:52.768Z,100235
2014-07-14T01:56:09.740Z,100226
2014-07-14T01:56:27.474Z,100226
2014-07-14T01:56:44.443Z,100232
2014-07-14T01:57:02.052Z,100223
2014-07-14T01:57:20.288Z,100223
2014-07-14T01:57:38.507Z,100237
2014-07-14T01:57:56.116Z,100226
2014-07-14T01:58:13.712Z,100223
2014-07-14T01:58:30.821Z,100237
2014-07-14T01:58:48.555Z,100237
2014-07-14T01:59:06.790Z,100229
2014-07-14T01:59:25.011Z,100237
2014-07-14T01:59:43.245Z,100237
2014-07-14T02:00:01.464Z,100226
2014-07-14T02:00:19.700Z,100229
2014-07-14T02:00:37.309Z,100232
2014-07-14T02:00:54.903Z,100229
2014-07-14T02:01:13.138Z,100229
2014-07-14T02:01:30.733Z,100232
2014-07-14T02:01:48.968Z,100223
2014-07-14T02:02:06.561Z,100226
2014-07-14T02:02:24.173Z,100229
2014-07-14T02:02:42.392Z,100223
2014-07-14T02:03:00.001Z,100235
2014-07-14T02:03:17.110Z,100226
2014-07-14T02:03:35.331Z,100220
2014-07-14T02:03:52.925Z,100229
2014-07-14T02:04:10.534Z,100232
2014-07-14T02:04:28.271Z,100226
2014-07-14T02:04:45.880Z,100229
2014-07-14T02:05:04.099Z,100229
2014-07-14T02:05:22.333Z,100223
2014-07-14T02:05:39.929Z,100220
2014-07-14T02:05:58.163Z,100223
2014-07-14T02:06:16.382Z,100226
2014-07-14T02:06:34.618Z,100229
2014-07-14T02:06:51.587Z,100229
2014-07-14T02:07:08.571Z,100223
2014-07-14T02:07:25.040Z,100220
2014-07-14T02:07:42.652Z,100229
2014-07-14T02:08:00.870Z,100223
2014-07-14T02:08:17.855Z,100223
2014-07-14T02:08:36.089Z,100229
2014-07-14T02:08:53.685Z,100217
2014-07-14T02:09:11.919Z,100217
2014-07-14T02:09:30.138Z,100226
2014-07-14T02:09:48.374Z,100220
2014-07-14T02:10:05.968Z,100220
2014-07-14T02:10:22.952Z,100220
2014-07-14T02:10:41.171Z,100223
2014-07-14T02:10:59.408Z,100220
2014-07-14T02:11:17.001Z,100226
2014-07-14T02:11:35.236Z,100229
2014-07-14T02:11:53.472Z,100220
2014-07-14T02:12:11.691Z,100223
2014-07-14T02:12:29.300Z,100217
2014-07-14T02:12:46.394Z,100220
2014-07-14T02:13:04.630Z,100226
2014-07-14T02:13:22.224Z,100223
2014-07-14T02:13:39.193Z,100226
2014-07-14T02:13:56.789Z,100220
2014-07-14T02:14:14.398Z,100223
2014-07-14T02:14:32.007Z,100229
2014-07-14T02:14:49.617Z,100226
2014-07-14T02:15:06.587Z,100220
2014-07-14T02:15:24.181Z,100220
2014-07-14T02:15:41.791Z,100223
2014-07-14T02:16:00.009Z,100223
2014-07-14T02:16:18.247Z,100223
2014-07-14T02:16:35.840Z,100229
2014-07-14T02:16:53.434Z,100229
2014-07-14T02:17:11.030Z,100226
2014-07-14T02:17:28.624Z,100235
2014-07-14T02:17:46.858Z,100223
2014-07-14T02:18:05.217Z,100226
2014-07-14T02:18:22.812Z,100235
2014-07-14T02:18:40.547Z,100229
2014-07-14T02:18:58.765Z,100232
2014-07-14T02:19:17.002Z,100229
2014-07-14T02:19:34.595Z,100226
2014-07-14T02:19:52.189Z,100223
2014-07-14T02:20:09.783Z,100217
2014-07-14T02:20:28.160Z,100226
2014-07-14T02:20:46.379Z,100226
2014-07-14T02:21:03.972Z,100235
2014-07-14T02:21:20.943Z,100223
2014-07-14T02:21:38.553Z,100232
2014-07-14T02:21:56.146Z,100229
2014-07-14T02:22:13.756Z,100232
2014-07-14T02:22:31.352Z,100226
2014-07-14T02:22:48.962Z,100229
2014-07-14T02:23:06.556Z,100237
2014-07-14T02:23:24.774Z,100229
2014-07-14T02:23:43.011Z,100232
2014-07-14T02:24:01.245Z,100232
2014-07-14T02:24:19.464Z,100237
2014-07-14T02:24:36.435Z,100232
2014-07-14T02:24:54.169Z,100234
2014-07-14T02:25:11.903Z,100240
2014-07-14T02:25:29.497Z,100243
2014-07-14T02:25:46.608Z,100237
2014-07-14T02:26:04.202Z,100240
2014-07-14T02:26:21.796Z,100240
2014-07-14T02:26:40.030Z,100249
2014-07-14T02:26:57.626Z,100234
2014-07-14T02:27:15.860Z,100243
2014-07-14T02:27:33.454Z,100237
2014-07-14T02:27:51.691Z,100246
2014-07-14T02:28:09.284Z,100246
2014-07-14T02:28:27.519Z,100243
2014-07-14T02:28:45.112Z,100249
2014-07-14T02:29:02.707Z,100234
2014-07-14T02:29:20.942Z,100246
2014-07-14T02:29:38.535Z,100246
2014-07-14T02:29:56.132Z,100237
2014-07-14T02:30:14.366Z,100240
2014-07-14T02:30:31.335Z,100240
2014-07-14T02:30:49.554Z,100246
2014-07-14T02:31:06.540Z,100246
2014-07-14T02:31:24.134Z,100237
2014-07-14T02:31:42.368Z,100237
2014-07-14T02:32:00.589Z,100246
2014-07-14T02:32:18.824Z,100246
2014-07-14T02:32:37.042Z,100243
2014-07-14T02:32:54.011Z,100234
2014-07-14T02:33:12.247Z,100240
2014-07-14T02:33:30.482Z,100246
2014-07-14T02:33:48.076Z,100234
2014-07-14T02:34:06.296Z,100249
2014-07-14T02:34:23.906Z,100246
2014-07-14T02:34:42.140Z,100240
2014-07-14T02:34:59.734Z,100243
2014-07-14T02:35:17.970Z,100249
2014-07-14T02:35:34.939Z,100240
2014-07-14T02:35:52.548Z,100234
2014-07-14T02:36:10.143Z,100246
2014-07-14T02:36:28.362Z,100240
2014-07-14T02:36:46.596Z,100246
2014-07-14T02:37:04.815Z,100243
2014-07-14T02:37:22.427Z,100249
2014-07-14T02:37:40.662Z,100240
2014-07-14T02:37:58.255Z,100237
2014-07-14T02:38:16.476Z,100246
2014-07-14T02:38:33.445Z,100243
2014-07-14T02:38:51.054Z,100240
2014-07-14T02:39:09.289Z,100237
2014-07-14T02:39:26.884Z,100240
2014-07-14T02:39:45.103Z,100237
2014-07-14T02:40:03.338Z,100243
2014-07-14T02:40:21.574Z,100246
2014-07-14T02:40:38.543Z,100237
2014-07-14T02:40:56.777Z,100246
2014-07-14T02:41:14.996Z,100240
2014-07-14T02:41:32.592Z,100229
2014-07-14T02:41:50.201Z,100240
2014-07-14T02:42:07.170Z,100240
2014-07-14T02:42:25.406Z,100235
2014-07-14T02:42:43.625Z,100240
2014-07-14T02:43:01.234Z,100243
2014-07-14T02:43:19.453Z,100240
2014-07-14T02:43:37.189Z,100237
2014-07-14T02:43:54.783Z,100246
2014-07-14T02:44:11.767Z,100246
2014-07-14T02:44:30.004Z,100240
2014-07-14T02:44:47.598Z,100243
2014-07-14T02:45:05.207Z,100237
2014-07-14T02:45:23.426Z,100240
2014-07-14T02:45:41.037Z,100235
2014-07-14T02:45:58.631Z,100246
2014-07-14T02:46:15.615Z,100240
2014-07-14T02:46:33.211Z,100246
2014-07-14T02:46:49.570Z,100243
2014-07-14T02:47:07.164Z,100240
2014-07-14T02:47:24.773Z,100237
2014-07-14T02:47:43.010Z,100240
2014-07-14T02:48:01.244Z,100243
2014-07-14T02:48:19.463Z,100237
2014-07-14T02:48:37.072Z,100234
2014-07-14T02:48:54.668Z,100234
2014-07-14T02:49:12.277Z,100243
2014-07-14T02:49:30.496Z,100234
2014-07-14T02:49:48.733Z,100240
2014-07-14T02:50:06.967Z,100243
2014-07-14T02:50:24.561Z,100237
2014-07-14T02:50:42.170Z,100243
2014-07-14T02:51:00.391Z,100237
2014-07-14T02:51:18.625Z,100234
2014-07-14T02:51:36.235Z,100240
2014-07-14T02:51:54.471Z,100237
2014-07-14T02:52:12.690Z,100246
2014-07-14T02:52:30.924Z,100240
2014-07-14T02:52:47.908Z,100234
2014-07-14T02:53:04.879Z,100240
2014-07-14T02:53:23.114Z,100246
2014-07-14T02:53:40.723Z,100237
2014-07-14T02:53:58.944Z,100240
2014-07-14T02:54:17.178Z,100240
2014-07-14T02:54:35.412Z,100246
2014-07-14T02:54:53.006Z,100237
2014-07-14T02:55:10.618Z,100243
2014-07-14T02:55:28.227Z,100237
2014-07-14T02:55:44.571Z,100246
2014-07-14T02:56:02.807Z,100246
2014-07-14T02:56:21.041Z,100243
2014-07-14T02:56:38.635Z,100240
2014-07-14T02:56:56.870Z,100243
2014-07-14T02:57:14.465Z,100246
2014-07-14T02:57:30.825Z,100249
2014-07-14T02:57:48.418Z,100249
2014-07-14T02:58:06.030Z,100246
2014-07-14T02:58:23.639Z,100252
2014-07-14T02:58:41.874Z,100252
2014-07-14T02:58:59.467Z,100252
2014-07-14T02:59:17.704Z,100249
2014-07-14T02:59:35.297Z,100243
2014-07-14T02:59:53.532Z,100249
2014-07-14T03:00:10.018Z,100243
2014-07-14T03:00:28.253Z,100243
2014-07-14T03:00:45.846Z,100246
2014-07-14T03:01:03.456Z,100246
2014-07-14T03:01:21.676Z,100246
2014-07-14T03:01:38.661Z,100249
2014-07-14T03:01:56.895Z,100252
2014-07-14T03:02:15.116Z,100246
2014-07-14T03:02:33.350Z,100249
2014-07-14T03:02:51.585Z,100240
2014-07-14T03:03:09.178Z,100246
2014-07-14T03:03:27.415Z,100249
2014-07-14T03:03:45.649Z,100243
2014-07-14T03:04:04.009Z,100243
2014-07-14T03:04:21.604Z,100255
2014-07-14T03:04:39.839Z,100246
2014-07-14T03:04:58.073Z,100249
2014-07-14T03:05:15.042Z,100246
2014-07-14T03:05:32.653Z,100243
2014-07-14T03:05:50.888Z,100243
2014-07-14T03:06:07.856Z,100258
2014-07-14T03:06:26.093Z,100252
2014-07-14T03:06:43.686Z,100252
2014-07-14T03:07:01.296Z,100252
2014-07-14T03:07:18.890Z,100252
2014-07-14T03:07:37.126Z,100252
2014-07-14T03:07:54.735Z,100246
2014-07-14T03:08:12.329Z,100255
2014-07-14T03:08:30.565Z,100252
2014-07-14T03:08:48.800Z,100252
2014-07-14T03:09:06.534Z,100249
2014-07-14T03:09:23.503Z,100246
2014-07-14T03:09:40.474Z,100252
2014-07-14T03:09:58.208Z,100249
2014-07-14T03:10:16.583Z,100252
2014-07-14T03:10:34.802Z,100240
2014-07-14T03:10:53.179Z,100252
2014-07-14T03:11:11.398Z,100257
2014-07-14T03:11:29.007Z,100255
2014-07-14T03:11:47.243Z,100252
2014-07-14T03:12:04.837Z,100249
2014-07-14T03:12:23.071Z,100260
2014-07-14T03:12:40.665Z,100252
2014-07-14T03:12:58.277Z,100257
2014-07-14T03:13:15.870Z,100260
2014-07-14T03:13:34.105Z,100255
2014-07-14T03:13:52.341Z,100255
2014-07-14T03:14:10.560Z,100260
2014-07-14T03:14:28.810Z,100257
2014-07-14T03:14:46.404Z,100257
2014-07-14T03:15:03.999Z,100263
2014-07-14T03:15:21.109Z,100255
2014-07-14T03:15:38.718Z,100266
2014-07-14T03:15:55.690Z,100263
2014-07-14T03:16:13.299Z,100260
2014-07-14T03:16:30.893Z,100260
2014-07-14T03:16:47.877Z,100266
2014-07-14T03:17:04.847Z,100255
2014-07-14T03:17:23.081Z,100263
2014-07-14T03:17:41.316Z,100263
2014-07-14T03:17:59.550Z,100255
2014-07-14T03:18:15.272Z,100263
2014-07-14T03:18:32.866Z,100257
2014-07-14T03:18:50.475Z,100257
2014-07-14T03:19:08.071Z,100263
2014-07-14T03:19:25.680Z,100252
2014-07-14T03:19:42.649Z,100252
2014-07-14T03:19:59.633Z,100255
2014-07-14T03:20:16.619Z,100257
2014-07-14T03:20:34.212Z,100257
2014-07-14T03:20:51.822Z,100252
2014-07-14T03:21:10.056Z,100255
2014-07-14T03:21:28.294Z,100255
2014-07-14T03:21:45.903Z,100249
2014-07-14T03:22:03.497Z,100252
2014-07-14T03:22:21.748Z,100260
2014-07-14T03:22:39.357Z,100249
2014-07-14T03:22:56.951Z,100252
2014-07-14T03:23:14.560Z,100260
2014-07-14T03:23:32.797Z,100257
2014-07-14T03:23:51.031Z,100246
2014-07-14T03:24:09.265Z,100252
2014-07-14T03:24:27.486Z,100249
2014-07-14T03:24:45.720Z,100246
2014-07-14T03:25:02.705Z,100246
2014-07-14T03:25:20.314Z,100246
2014-07-14T03:25:38.567Z,100246
2014-07-14T03:25:56.286Z,100255
2014-07-14T03:26:14.520Z,100246
2014-07-14T03:26:32.131Z,100255
2014-07-14T03:26:50.365Z,100252
2014-07-14T03:27:07.974Z,100249
2014-07-14T03:27:26.209Z,100252
2014-07-14T03:27:44.431Z,100243
2014-07-14T03:28:02.040Z,100243
2014-07-14T03:28:20.274Z,100249
2014-07-14T03:28:38.510Z,100237
2014-07-14T03:28:56.103Z,100243
2014-07-14T03:29:13.713Z,100249
2014-07-14T03:29:31.947Z,100237
2014-07-14T03:29:48.919Z,100243
2014-07-14T03:30:06.528Z,100237
2014-07-14T03:30:24.763Z,100243
2014-07-14T03:30:42.999Z,100243
2014-07-14T03:31:01.233Z,100243
2014-07-14T03:31:18.202Z,100249
2014-07-14T03:31:35.187Z,100237
2014-07-14T03:31:53.423Z,100240
2014-07-14T03:32:11.032Z,100243
2014-07-14T03:32:28.642Z,100246
2014-07-14T03:32:46.253Z,100237
2014-07-14T03:33:03.847Z,100246
2014-07-14T03:33:21.456Z,100257
2014-07-14T03:33:39.066Z,100255
2014-07-14T03:33:56.661Z,100252
2014-07-14T03:34:14.896Z,100249
2014-07-14T03:34:33.130Z,100255
2014-07-14T03:34:50.739Z,100249
2014-07-14T03:35:08.976Z,100249
2014-07-14T03:35:26.585Z,100255
2014-07-14T03:35:44.820Z,100257
2014-07-14T03:36:03.040Z,100257
2014-07-14T03:36:20.665Z,100252
2014-07-14T03:36:38.275Z,100246
2014-07-14T03:36:55.868Z,100252
2014-07-14T03:37:14.105Z,100246
2014-07-14T03:37:31.714Z,100257
2014-07-14T03:37:49.949Z,100246
2014-07-14T03:38:07.560Z,100246
2014-07-14T03:38:25.794Z,100254
2014-07-14T03:38:43.404Z,100243
2014-07-14T03:39:01.638Z,100254
2014-07-14T03:39:19.234Z,100249
2014-07-14T03:39:37.468Z,100246
2014-07-14T03:39:55.703Z,100249
2014-07-14T03:40:13.939Z,100237
2014-07-14T03:40:32.173Z,100243
2014-07-14T03:40:49.783Z,100240
2014-07-14T03:41:08.017Z,100240
2014-07-14T03:41:26.252Z,100243
2014-07-14T03:41:43.846Z,100240